sensor_id;sensor_type;location;lat;lon;timestamp;temperature;humidity
17200;DHT22;8716;52.268;20.968;2024-02-23T00:01:48;10.00;99.90
17200;DHT22;8716;52.268;20.968;2024-02-23T00:04:17;10.00;99.90
17200;DHT22;8716;52.268;20.968;2024-02-23T00:06:47;10.00;99.90
17200;DHT22;8716;52.268;20.968;2024-02-23T00:09:15;10.00;99.90
17200;DHT22;8716;52.268;20.968;2024-02-23T00:11:44;10.00;99.90
17200;DHT22;8716;52.268;20.968;2024-02-23T00:14:12;10.00;99.90
17200;DHT22;8716;52.268;20.968;2024-02-23T00:16:41;10.10;99.90
17200;DHT22;8716;52.268;20.968;2024-02-23T00:19:08;10.10;99.90
17200;DHT22;8716;52.268;20.968;2024-02-23T00:21:38;10.10;99.90
17200;DHT22;8716;52.268;20.968;2024-02-23T00:24:08;10.10;99.90
17200;DHT22;8716;52.268;20.968;2024-02-23T00:26:36;10.10;99.90
17200;DHT22;8716;52.268;20.968;2024-02-23T00:29:05;10.10;99.90
17200;DHT22;8716;52.268;20.968;2024-02-23T00:31:33;10.10;99.90
17200;DHT22;8716;52.268;20.968;2024-02-23T00:34:03;10.00;99.90
17200;DHT22;8716;52.268;20.968;2024-02-23T00:36:31;10.00;99.90
17200;DHT22;8716;52.268;20.968;2024-02-23T00:38:59;10.00;99.90
17200;DHT22;8716;52.268;20.968;2024-02-23T00:41:29;10.00;99.90
17200;DHT22;8716;52.268;20.968;2024-02-23T00:43:57;10.00;99.90
17200;DHT22;8716;52.268;20.968;2024-02-23T00:46:26;10.00;99.90
17200;DHT22;8716;52.268;20.968;2024-02-23T00:48:54;10.10;99.90
17200;DHT22;8716;52.268;20.968;2024-02-23T00:51:23;10.00;99.90
17200;DHT22;8716;52.268;20.968;2024-02-23T00:53:51;10.10;99.90
17200;DHT22;8716;52.268;20.968;2024-02-23T00:56:20;10.10;99.90
17200;DHT22;8716;52.268;20.968;2024-02-23T00:58:56;10.10;99.90
17200;DHT22;8716;52.268;20.968;2024-02-23T01:01:25;10.10;99.90
17200;DHT22;8716;52.268;20.968;2024-02-23T01:03:54;10.00;99.90
17200;DHT22;8716;52.268;20.968;2024-02-23T01:06:22;10.00;99.90
17200;DHT22;8716;52.268;20.968;2024-02-23T01:08:51;10.00;99.90
17200;DHT22;8716;52.268;20.968;2024-02-23T01:11:19;10.10;99.90
17200;DHT22;8716;52.268;20.968;2024-02-23T01:13:48;10.10;99.90
17200;DHT22;8716;52.268;20.968;2024-02-23T01:16:17;10.10;99.90
17200;DHT22;8716;52.268;20.968;2024-02-23T01:18:46;10.10;99.90
17200;DHT22;8716;52.268;20.968;2024-02-23T01:21:14;10.10;99.90
17200;DHT22;8716;52.268;20.968;2024-02-23T01:23:42;10.10;99.90
17200;DHT22;8716;52.268;20.968;2024-02-23T01:26:11;10.20;99.90
17200;DHT22;8716;52.268;20.968;2024-02-23T01:28:40;10.20;99.90
17200;DHT22;8716;52.268;20.968;2024-02-23T01:31:08;10.10;99.90
17200;DHT22;8716;52.268;20.968;2024-02-23T01:33:40;10.10;99.90
17200;DHT22;8716;52.268;20.968;2024-02-23T01:36:11;10.10;99.90
17200;DHT22;8716;52.268;20.968;2024-02-23T01:38:41;10.10;99.90
17200;DHT22;8716;52.268;20.968;2024-02-23T01:41:12;10.00;99.90
17200;DHT22;8716;52.268;20.968;2024-02-23T01:43:40;9.90;99.90
17200;DHT22;8716;52.268;20.968;2024-02-23T01:46:08;9.90;99.90
17200;DHT22;8716;52.268;20.968;2024-02-23T01:48:37;9.90;99.90
17200;DHT22;8716;52.268;20.968;2024-02-23T01:51:06;10.00;99.90
17200;DHT22;8716;52.268;20.968;2024-02-23T01:53:35;10.00;99.90
17200;DHT22;8716;52.268;20.968;2024-02-23T01:56:04;10.00;99.90
17200;DHT22;8716;52.268;20.968;2024-02-23T01:58:33;10.10;99.90
17200;DHT22;8716;52.268;20.968;2024-02-23T02:01:03;10.00;99.90
17200;DHT22;8716;52.268;20.968;2024-02-23T02:03:32;10.10;99.90
17200;DHT22;8716;52.268;20.968;2024-02-23T02:06:01;10.10;99.90
17200;DHT22;8716;52.268;20.968;2024-02-23T02:08:31;10.10;99.90
17200;DHT22;8716;52.268;20.968;2024-02-23T02:11:00;10.10;99.90
17200;DHT22;8716;52.268;20.968;2024-02-23T02:13:28;10.10;99.90
17200;DHT22;8716;52.268;20.968;2024-02-23T02:16:01;10.10;99.90
17200;DHT22;8716;52.268;20.968;2024-02-23T02:18:30;10.10;99.90
17200;DHT22;8716;52.268;20.968;2024-02-23T02:21:00;10.10;99.90
17200;DHT22;8716;52.268;20.968;2024-02-23T02:23:28;10.20;99.90
17200;DHT22;8716;52.268;20.968;2024-02-23T02:25:58;10.10;99.90
17200;DHT22;8716;52.268;20.968;2024-02-23T02:28:27;10.10;99.90
17200;DHT22;8716;52.268;20.968;2024-02-23T02:30:55;10.10;99.90
17200;DHT22;8716;52.268;20.968;2024-02-23T02:33:24;10.10;99.90
17200;DHT22;8716;52.268;20.968;2024-02-23T02:35:52;10.20;99.90
17200;DHT22;8716;52.268;20.968;2024-02-23T02:38:20;10.20;99.90
17200;DHT22;8716;52.268;20.968;2024-02-23T02:40:49;10.10;99.90
17200;DHT22;8716;52.268;20.968;2024-02-23T02:43:18;10.20;99.90
17200;DHT22;8716;52.268;20.968;2024-02-23T02:45:47;10.20;99.90
17200;DHT22;8716;52.268;20.968;2024-02-23T02:48:15;10.20;99.90
17200;DHT22;8716;52.268;20.968;2024-02-23T02:50:46;10.10;99.90
17200;DHT22;8716;52.268;20.968;2024-02-23T02:53:17;10.10;99.90
17200;DHT22;8716;52.268;20.968;2024-02-23T02:55:46;10.10;99.90
17200;DHT22;8716;52.268;20.968;2024-02-23T02:58:14;10.10;99.90
17200;DHT22;8716;52.268;20.968;2024-02-23T03:00:44;10.10;99.90
17200;DHT22;8716;52.268;20.968;2024-02-23T03:03:12;10.10;99.90
17200;DHT22;8716;52.268;20.968;2024-02-23T03:05:40;10.10;99.90
17200;DHT22;8716;52.268;20.968;2024-02-23T03:08:09;10.10;99.90
17200;DHT22;8716;52.268;20.968;2024-02-23T03:10:37;10.10;99.90
17200;DHT22;8716;52.268;20.968;2024-02-23T03:13:06;10.10;99.90
17200;DHT22;8716;52.268;20.968;2024-02-23T03:15:34;10.20;99.90
17200;DHT22;8716;52.268;20.968;2024-02-23T03:18:04;10.10;99.90
17200;DHT22;8716;52.268;20.968;2024-02-23T03:20:36;10.10;99.90
17200;DHT22;8716;52.268;20.968;2024-02-23T03:23:04;10.10;99.90
17200;DHT22;8716;52.268;20.968;2024-02-23T03:25:33;10.10;99.90
17200;DHT22;8716;52.268;20.968;2024-02-23T03:28:01;10.10;99.90
17200;DHT22;8716;52.268;20.968;2024-02-23T03:30:29;10.00;99.90
17200;DHT22;8716;52.268;20.968;2024-02-23T03:33:04;9.90;99.90
17200;DHT22;8716;52.268;20.968;2024-02-23T03:35:32;9.80;99.90
17200;DHT22;8716;52.268;20.968;2024-02-23T03:38:01;9.80;99.90
17200;DHT22;8716;52.268;20.968;2024-02-23T03:40:29;9.70;99.90
17200;DHT22;8716;52.268;20.968;2024-02-23T03:42:57;9.70;99.90
17200;DHT22;8716;52.268;20.968;2024-02-23T03:45:25;9.60;99.90
17200;DHT22;8716;52.268;20.968;2024-02-23T03:47:54;9.50;99.90
17200;DHT22;8716;52.268;20.968;2024-02-23T03:50:23;9.50;99.90
17200;DHT22;8716;52.268;20.968;2024-02-23T03:52:52;9.50;99.90
17200;DHT22;8716;52.268;20.968;2024-02-23T03:55:20;9.40;99.90
17200;DHT22;8716;52.268;20.968;2024-02-23T03:57:49;9.40;99.90
17200;DHT22;8716;52.268;20.968;2024-02-23T04:00:17;9.30;99.90
17200;DHT22;8716;52.268;20.968;2024-02-23T04:02:46;9.30;99.90
17200;DHT22;8716;52.268;20.968;2024-02-23T04:05:14;9.20;99.90
17200;DHT22;8716;52.268;20.968;2024-02-23T04:07:44;9.20;99.90
17200;DHT22;8716;52.268;20.968;2024-02-23T04:10:12;9.20;99.90
17200;DHT22;8716;52.268;20.968;2024-02-23T04:12:43;9.10;99.90
17200;DHT22;8716;52.268;20.968;2024-02-23T04:15:11;9.10;99.90
17200;DHT22;8716;52.268;20.968;2024-02-23T04:17:40;9.10;99.90
17200;DHT22;8716;52.268;20.968;2024-02-23T04:20:09;9.00;99.90
17200;DHT22;8716;52.268;20.968;2024-02-23T04:22:37;9.00;99.90
17200;DHT22;8716;52.268;20.968;2024-02-23T04:25:08;9.00;99.90
17200;DHT22;8716;52.268;20.968;2024-02-23T04:27:36;9.00;99.90
17200;DHT22;8716;52.268;20.968;2024-02-23T04:30:05;9.00;99.90
17200;DHT22;8716;52.268;20.968;2024-02-23T04:32:34;8.90;99.90
17200;DHT22;8716;52.268;20.968;2024-02-23T04:35:03;8.90;99.90
17200;DHT22;8716;52.268;20.968;2024-02-23T04:37:31;8.90;99.90
17200;DHT22;8716;52.268;20.968;2024-02-23T04:40:04;8.90;99.90
17200;DHT22;8716;52.268;20.968;2024-02-23T04:42:34;8.90;99.90
17200;DHT22;8716;52.268;20.968;2024-02-23T04:45:02;8.90;99.90
17200;DHT22;8716;52.268;20.968;2024-02-23T04:47:31;8.90;99.90
17200;DHT22;8716;52.268;20.968;2024-02-23T04:49:59;8.90;99.90
17200;DHT22;8716;52.268;20.968;2024-02-23T04:52:29;8.80;99.90
17200;DHT22;8716;52.268;20.968;2024-02-23T04:54:58;8.90;99.90
17200;DHT22;8716;52.268;20.968;2024-02-23T04:57:26;8.90;99.90
17200;DHT22;8716;52.268;20.968;2024-02-23T04:59:56;8.90;99.90
17200;DHT22;8716;52.268;20.968;2024-02-23T05:02:24;8.90;99.90
17200;DHT22;8716;52.268;20.968;2024-02-23T05:04:55;8.80;99.90
17200;DHT22;8716;52.268;20.968;2024-02-23T05:07:24;8.80;99.90
17200;DHT22;8716;52.268;20.968;2024-02-23T05:09:52;8.80;99.90
17200;DHT22;8716;52.268;20.968;2024-02-23T05:12:21;8.80;99.90
17200;DHT22;8716;52.268;20.968;2024-02-23T05:14:49;8.80;99.90
17200;DHT22;8716;52.268;20.968;2024-02-23T05:17:19;8.90;99.90
17200;DHT22;8716;52.268;20.968;2024-02-23T05:19:47;8.90;99.90
17200;DHT22;8716;52.268;20.968;2024-02-23T05:22:15;8.80;99.90
17200;DHT22;8716;52.268;20.968;2024-02-23T05:24:44;8.90;99.90
17200;DHT22;8716;52.268;20.968;2024-02-23T05:27:12;8.80;99.90
17200;DHT22;8716;52.268;20.968;2024-02-23T05:29:40;8.80;99.90
17200;DHT22;8716;52.268;20.968;2024-02-23T05:32:09;8.80;99.90
17200;DHT22;8716;52.268;20.968;2024-02-23T05:34:39;8.80;99.90
17200;DHT22;8716;52.268;20.968;2024-02-23T05:37:08;8.80;99.90
17200;DHT22;8716;52.268;20.968;2024-02-23T05:39:36;8.80;99.90
17200;DHT22;8716;52.268;20.968;2024-02-23T05:42:05;8.80;99.90
17200;DHT22;8716;52.268;20.968;2024-02-23T05:44:33;8.80;99.90
17200;DHT22;8716;52.268;20.968;2024-02-23T05:47:02;8.70;99.90
17200;DHT22;8716;52.268;20.968;2024-02-23T05:49:32;8.80;99.90
17200;DHT22;8716;52.268;20.968;2024-02-23T05:52:03;8.80;99.90
17200;DHT22;8716;52.268;20.968;2024-02-23T05:54:32;8.80;99.90
17200;DHT22;8716;52.268;20.968;2024-02-23T05:57:00;8.80;99.90
17200;DHT22;8716;52.268;20.968;2024-02-23T05:59:29;8.80;99.90
17200;DHT22;8716;52.268;20.968;2024-02-23T06:01:58;8.80;99.90
17200;DHT22;8716;52.268;20.968;2024-02-23T06:04:27;8.70;99.90
17200;DHT22;8716;52.268;20.968;2024-02-23T06:06:56;8.70;99.90
17200;DHT22;8716;52.268;20.968;2024-02-23T06:09:26;8.70;99.90
17200;DHT22;8716;52.268;20.968;2024-02-23T06:11:54;8.80;99.90
17200;DHT22;8716;52.268;20.968;2024-02-23T06:14:24;8.80;99.90
17200;DHT22;8716;52.268;20.968;2024-02-23T06:16:53;8.80;99.90
17200;DHT22;8716;52.268;20.968;2024-02-23T06:19:21;8.80;99.90
17200;DHT22;8716;52.268;20.968;2024-02-23T06:21:50;8.80;99.90
17200;DHT22;8716;52.268;20.968;2024-02-23T06:24:18;8.80;99.90
17200;DHT22;8716;52.268;20.968;2024-02-23T06:26:48;8.80;99.90
17200;DHT22;8716;52.268;20.968;2024-02-23T06:29:16;8.80;99.90
17200;DHT22;8716;52.268;20.968;2024-02-23T06:31:44;8.80;99.90
17200;DHT22;8716;52.268;20.968;2024-02-23T06:34:16;8.80;99.90
17200;DHT22;8716;52.268;20.968;2024-02-23T06:36:45;8.80;99.90
17200;DHT22;8716;52.268;20.968;2024-02-23T06:39:13;8.80;99.90
17200;DHT22;8716;52.268;20.968;2024-02-23T06:41:45;8.80;99.90
17200;DHT22;8716;52.268;20.968;2024-02-23T06:44:14;8.80;99.90
17200;DHT22;8716;52.268;20.968;2024-02-23T06:46:43;8.80;99.90
17200;DHT22;8716;52.268;20.968;2024-02-23T06:49:11;8.80;99.90
17200;DHT22;8716;52.268;20.968;2024-02-23T06:51:40;8.80;99.90
17200;DHT22;8716;52.268;20.968;2024-02-23T06:54:09;8.80;99.90
17200;DHT22;8716;52.268;20.968;2024-02-23T06:56:37;8.90;99.90
17200;DHT22;8716;52.268;20.968;2024-02-23T06:59:05;8.90;99.90
17200;DHT22;8716;52.268;20.968;2024-02-23T07:01:35;8.90;99.90
17200;DHT22;8716;52.268;20.968;2024-02-23T07:04:07;8.90;99.90
17200;DHT22;8716;52.268;20.968;2024-02-23T07:06:35;9.00;99.90
17200;DHT22;8716;52.268;20.968;2024-02-23T07:09:04;9.00;99.90
17200;DHT22;8716;52.268;20.968;2024-02-23T07:11:32;9.00;99.90
17200;DHT22;8716;52.268;20.968;2024-02-23T07:14:01;9.00;99.90
17200;DHT22;8716;52.268;20.968;2024-02-23T07:16:29;9.10;99.90
17200;DHT22;8716;52.268;20.968;2024-02-23T07:19:01;9.10;99.90
17200;DHT22;8716;52.268;20.968;2024-02-23T07:21:29;9.10;99.90
17200;DHT22;8716;52.268;20.968;2024-02-23T07:23:58;9.10;99.90
17200;DHT22;8716;52.268;20.968;2024-02-23T07:26:26;9.10;99.90
17200;DHT22;8716;52.268;20.968;2024-02-23T07:28:56;9.10;99.90
17200;DHT22;8716;52.268;20.968;2024-02-23T07:31:24;9.20;99.90
17200;DHT22;8716;52.268;20.968;2024-02-23T07:33:53;9.20;99.90
17200;DHT22;8716;52.268;20.968;2024-02-23T07:36:23;9.20;99.90
17200;DHT22;8716;52.268;20.968;2024-02-23T07:38:51;9.20;99.90
17200;DHT22;8716;52.268;20.968;2024-02-23T07:41:20;9.20;99.90
17200;DHT22;8716;52.268;20.968;2024-02-23T07:43:48;9.20;99.90
17200;DHT22;8716;52.268;20.968;2024-02-23T07:46:17;9.30;99.90
17200;DHT22;8716;52.268;20.968;2024-02-23T07:48:46;9.30;99.90
17200;DHT22;8716;52.268;20.968;2024-02-23T07:51:15;9.30;99.90
17200;DHT22;8716;52.268;20.968;2024-02-23T07:53:45;9.30;99.90
17200;DHT22;8716;52.268;20.968;2024-02-23T07:56:16;9.30;99.90
17200;DHT22;8716;52.268;20.968;2024-02-23T07:58:44;9.30;99.90
17200;DHT22;8716;52.268;20.968;2024-02-23T08:01:16;9.30;99.90
17200;DHT22;8716;52.268;20.968;2024-02-23T08:03:44;9.40;99.90
17200;DHT22;8716;52.268;20.968;2024-02-23T08:06:13;9.40;99.90
17200;DHT22;8716;52.268;20.968;2024-02-23T08:08:41;9.40;99.90
17200;DHT22;8716;52.268;20.968;2024-02-23T08:11:11;9.50;99.90
17200;DHT22;8716;52.268;20.968;2024-02-23T08:13:41;9.50;99.90
17200;DHT22;8716;52.268;20.968;2024-02-23T08:16:09;9.50;99.90
17200;DHT22;8716;52.268;20.968;2024-02-23T08:18:37;9.50;99.90
17200;DHT22;8716;52.268;20.968;2024-02-23T08:21:06;9.50;99.90
17200;DHT22;8716;52.268;20.968;2024-02-23T08:23:34;9.50;99.90
17200;DHT22;8716;52.268;20.968;2024-02-23T08:26:03;9.50;99.90
17200;DHT22;8716;52.268;20.968;2024-02-23T08:28:33;9.50;99.90
17200;DHT22;8716;52.268;20.968;2024-02-23T08:31:01;9.50;99.90
17200;DHT22;8716;52.268;20.968;2024-02-23T08:33:29;9.60;99.90
17200;DHT22;8716;52.268;20.968;2024-02-23T08:35:58;9.60;99.90
17200;DHT22;8716;52.268;20.968;2024-02-23T08:38:26;9.60;99.90
17200;DHT22;8716;52.268;20.968;2024-02-23T08:40:54;9.70;99.90
17200;DHT22;8716;52.268;20.968;2024-02-23T08:43:23;9.70;99.90
17200;DHT22;8716;52.268;20.968;2024-02-23T08:45:53;9.80;99.90
17200;DHT22;8716;52.268;20.968;2024-02-23T08:48:21;9.80;99.90
17200;DHT22;8716;52.268;20.968;2024-02-23T08:50:49;9.80;99.90
17200;DHT22;8716;52.268;20.968;2024-02-23T08:53:18;9.90;99.90
17200;DHT22;8716;52.268;20.968;2024-02-23T08:55:46;9.90;99.90
17200;DHT22;8716;52.268;20.968;2024-02-23T08:58:14;9.90;99.90
17200;DHT22;8716;52.268;20.968;2024-02-23T09:00:43;10.00;99.90
17200;DHT22;8716;52.268;20.968;2024-02-23T09:03:12;10.00;99.90
17200;DHT22;8716;52.268;20.968;2024-02-23T09:05:41;10.10;99.90
17200;DHT22;8716;52.268;20.968;2024-02-23T09:08:10;10.20;99.90
17200;DHT22;8716;52.268;20.968;2024-02-23T09:10:38;10.30;99.90
17200;DHT22;8716;52.268;20.968;2024-02-23T09:13:07;10.40;99.90
17200;DHT22;8716;52.268;20.968;2024-02-23T09:15:35;10.50;99.90
17200;DHT22;8716;52.268;20.968;2024-02-23T09:18:04;10.60;99.90
17200;DHT22;8716;52.268;20.968;2024-02-23T09:20:34;10.60;99.90
17200;DHT22;8716;52.268;20.968;2024-02-23T09:23:02;10.70;99.90
17200;DHT22;8716;52.268;20.968;2024-02-23T09:25:31;10.80;99.90
17200;DHT22;8716;52.268;20.968;2024-02-23T09:27:59;10.90;99.90
17200;DHT22;8716;52.268;20.968;2024-02-23T09:30:27;11.00;99.90
17200;DHT22;8716;52.268;20.968;2024-02-23T09:32:55;11.20;99.90
17200;DHT22;8716;52.268;20.968;2024-02-23T09:35:24;11.30;99.90
17200;DHT22;8716;52.268;20.968;2024-02-23T09:37:56;11.50;99.90
17200;DHT22;8716;52.268;20.968;2024-02-23T09:40:24;11.60;99.90
17200;DHT22;8716;52.268;20.968;2024-02-23T09:42:56;11.70;99.90
17200;DHT22;8716;52.268;20.968;2024-02-23T09:45:26;11.70;99.90
17200;DHT22;8716;52.268;20.968;2024-02-23T09:47:56;11.70;99.90
17200;DHT22;8716;52.268;20.968;2024-02-23T09:50:27;11.70;99.90
17200;DHT22;8716;52.268;20.968;2024-02-23T09:52:58;11.70;99.90
17200;DHT22;8716;52.268;20.968;2024-02-23T09:55:27;11.70;99.90
17200;DHT22;8716;52.268;20.968;2024-02-23T09:57:57;11.70;99.90
17200;DHT22;8716;52.268;20.968;2024-02-23T10:00:27;11.70;99.90
17200;DHT22;8716;52.268;20.968;2024-02-23T10:02:58;11.60;99.90
17200;DHT22;8716;52.268;20.968;2024-02-23T10:05:30;11.60;99.90
17200;DHT22;8716;52.268;20.968;2024-02-23T10:08:05;11.60;99.90
17200;DHT22;8716;52.268;20.968;2024-02-23T10:10:34;11.60;99.90
17200;DHT22;8716;52.268;20.968;2024-02-23T10:13:05;11.60;99.90
17200;DHT22;8716;52.268;20.968;2024-02-23T10:15:33;11.60;99.90
17200;DHT22;8716;52.268;20.968;2024-02-23T10:18:02;11.50;99.90
17200;DHT22;8716;52.268;20.968;2024-02-23T10:20:33;11.60;99.90
17200;DHT22;8716;52.268;20.968;2024-02-23T10:23:02;11.60;99.90
17200;DHT22;8716;52.268;20.968;2024-02-23T10:25:34;11.60;99.90
17200;DHT22;8716;52.268;20.968;2024-02-23T10:28:04;11.60;99.90
17200;DHT22;8716;52.268;20.968;2024-02-23T10:30:33;11.70;99.90
17200;DHT22;8716;52.268;20.968;2024-02-23T10:33:01;11.70;99.90
17200;DHT22;8716;52.268;20.968;2024-02-23T10:35:32;11.70;99.90
17200;DHT22;8716;52.268;20.968;2024-02-23T10:38:05;11.70;99.90
17200;DHT22;8716;52.268;20.968;2024-02-23T10:40:39;11.70;99.90
17200;DHT22;8716;52.268;20.968;2024-02-23T10:43:11;11.70;99.90
17200;DHT22;8716;52.268;20.968;2024-02-23T10:45:40;11.70;99.90
17200;DHT22;8716;52.268;20.968;2024-02-23T10:48:11;11.70;99.90
17200;DHT22;8716;52.268;20.968;2024-02-23T10:50:41;11.70;99.90
17200;DHT22;8716;52.268;20.968;2024-02-23T10:53:11;11.80;99.90
17200;DHT22;8716;52.268;20.968;2024-02-23T10:55:42;11.80;99.90
17200;DHT22;8716;52.268;20.968;2024-02-23T10:58:12;11.70;99.90
17200;DHT22;8716;52.268;20.968;2024-02-23T11:00:42;11.70;99.90
17200;DHT22;8716;52.268;20.968;2024-02-23T11:03:13;11.70;99.90
17200;DHT22;8716;52.268;20.968;2024-02-23T11:05:42;11.70;99.90
17200;DHT22;8716;52.268;20.968;2024-02-23T11:08:11;11.70;99.90
17200;DHT22;8716;52.268;20.968;2024-02-23T11:10:48;11.70;99.90
17200;DHT22;8716;52.268;20.968;2024-02-23T11:13:17;11.70;99.90
17200;DHT22;8716;52.268;20.968;2024-02-23T11:15:45;11.70;99.90
17200;DHT22;8716;52.268;20.968;2024-02-23T11:18:22;11.70;99.90
17200;DHT22;8716;52.268;20.968;2024-02-23T11:20:55;11.80;99.90
17200;DHT22;8716;52.268;20.968;2024-02-23T11:23:26;11.70;99.90
17200;DHT22;8716;52.268;20.968;2024-02-23T11:26:06;11.70;99.90
17200;DHT22;8716;52.268;20.968;2024-02-23T11:28:42;11.70;99.90
17200;DHT22;8716;52.268;20.968;2024-02-23T11:31:14;11.70;99.90
17200;DHT22;8716;52.268;20.968;2024-02-23T11:33:49;11.70;99.90
17200;DHT22;8716;52.268;20.968;2024-02-23T11:36:24;11.70;99.90
17200;DHT22;8716;52.268;20.968;2024-02-23T11:38:53;11.70;99.90
17200;DHT22;8716;52.268;20.968;2024-02-23T11:41:24;11.70;99.90
17200;DHT22;8716;52.268;20.968;2024-02-23T11:43:53;11.70;99.90
17200;DHT22;8716;52.268;20.968;2024-02-23T11:46:22;11.80;99.90
17200;DHT22;8716;52.268;20.968;2024-02-23T11:48:51;11.80;99.90
17200;DHT22;8716;52.268;20.968;2024-02-23T11:51:22;11.80;99.90
17200;DHT22;8716;52.268;20.968;2024-02-23T11:53:55;11.90;99.90
17200;DHT22;8716;52.268;20.968;2024-02-23T11:56:27;11.90;99.90
17200;DHT22;8716;52.268;20.968;2024-02-23T11:58:56;11.90;99.90
17200;DHT22;8716;52.268;20.968;2024-02-23T12:01:24;12.00;99.90
17200;DHT22;8716;52.268;20.968;2024-02-23T12:03:53;11.90;99.90
17200;DHT22;8716;52.268;20.968;2024-02-23T12:06:21;11.90;99.90
17200;DHT22;8716;52.268;20.968;2024-02-23T12:08:52;11.90;99.90
17200;DHT22;8716;52.268;20.968;2024-02-23T12:11:21;11.90;99.90
17200;DHT22;8716;52.268;20.968;2024-02-23T12:13:51;11.90;99.90
17200;DHT22;8716;52.268;20.968;2024-02-23T12:16:20;11.90;99.90
17200;DHT22;8716;52.268;20.968;2024-02-23T12:18:53;11.90;99.90
17200;DHT22;8716;52.268;20.968;2024-02-23T12:21:25;11.90;99.90
17200;DHT22;8716;52.268;20.968;2024-02-23T12:23:53;11.90;99.90
17200;DHT22;8716;52.268;20.968;2024-02-23T12:26:21;11.90;99.90
17200;DHT22;8716;52.268;20.968;2024-02-23T12:28:51;12.00;99.90
17200;DHT22;8716;52.268;20.968;2024-02-23T12:31:23;12.10;99.90
17200;DHT22;8716;52.268;20.968;2024-02-23T12:33:53;12.20;99.90
17200;DHT22;8716;52.268;20.968;2024-02-23T12:36:23;12.20;99.90
17200;DHT22;8716;52.268;20.968;2024-02-23T12:38:51;12.30;99.90
17200;DHT22;8716;52.268;20.968;2024-02-23T12:41:19;12.30;99.90
17200;DHT22;8716;52.268;20.968;2024-02-23T12:43:48;12.40;99.90
17200;DHT22;8716;52.268;20.968;2024-02-23T12:46:17;12.40;99.90
17200;DHT22;8716;52.268;20.968;2024-02-23T12:48:46;12.40;99.90
17200;DHT22;8716;52.268;20.968;2024-02-23T12:51:14;12.40;99.90
17200;DHT22;8716;52.268;20.968;2024-02-23T12:53:43;12.40;99.90
17200;DHT22;8716;52.268;20.968;2024-02-23T12:56:13;12.30;99.90
17200;DHT22;8716;52.268;20.968;2024-02-23T12:58:46;12.30;99.90
17200;DHT22;8716;52.268;20.968;2024-02-23T13:01:14;12.30;99.90
17200;DHT22;8716;52.268;20.968;2024-02-23T13:03:44;12.30;99.90
17200;DHT22;8716;52.268;20.968;2024-02-23T13:06:12;12.20;99.90
17200;DHT22;8716;52.268;20.968;2024-02-23T13:08:41;12.20;99.90
17200;DHT22;8716;52.268;20.968;2024-02-23T13:11:10;12.20;99.90
17200;DHT22;8716;52.268;20.968;2024-02-23T13:13:38;12.20;99.90
17200;DHT22;8716;52.268;20.968;2024-02-23T13:16:10;12.20;99.90
17200;DHT22;8716;52.268;20.968;2024-02-23T13:18:43;12.20;99.90
17200;DHT22;8716;52.268;20.968;2024-02-23T13:21:14;12.30;99.90
17200;DHT22;8716;52.268;20.968;2024-02-23T13:23:42;12.30;99.90
17200;DHT22;8716;52.268;20.968;2024-02-23T13:26:10;12.30;99.90
17200;DHT22;8716;52.268;20.968;2024-02-23T13:28:42;12.40;99.90
17200;DHT22;8716;52.268;20.968;2024-02-23T13:31:12;12.40;99.90
17200;DHT22;8716;52.268;20.968;2024-02-23T13:33:40;12.40;99.90
17200;DHT22;8716;52.268;20.968;2024-02-23T13:36:10;12.40;99.90
17200;DHT22;8716;52.268;20.968;2024-02-23T13:38:39;12.30;99.90
17200;DHT22;8716;52.268;20.968;2024-02-23T13:41:09;12.30;99.90
17200;DHT22;8716;52.268;20.968;2024-02-23T13:43:38;12.30;99.90
17200;DHT22;8716;52.268;20.968;2024-02-23T13:46:07;12.20;99.90
17200;DHT22;8716;52.268;20.968;2024-02-23T13:48:35;12.20;99.90
17200;DHT22;8716;52.268;20.968;2024-02-23T13:51:05;12.10;99.90
17200;DHT22;8716;52.268;20.968;2024-02-23T13:53:35;12.10;99.90
17200;DHT22;8716;52.268;20.968;2024-02-23T13:56:05;12.00;99.90
17200;DHT22;8716;52.268;20.968;2024-02-23T13:58:33;12.00;99.90
17200;DHT22;8716;52.268;20.968;2024-02-23T14:01:02;12.00;99.90
17200;DHT22;8716;52.268;20.968;2024-02-23T14:03:31;12.00;99.90
17200;DHT22;8716;52.268;20.968;2024-02-23T14:05:59;12.00;99.90
17200;DHT22;8716;52.268;20.968;2024-02-23T14:08:28;12.00;99.90
17200;DHT22;8716;52.268;20.968;2024-02-23T14:10:58;12.00;99.90
17200;DHT22;8716;52.268;20.968;2024-02-23T14:13:27;12.00;99.90
17200;DHT22;8716;52.268;20.968;2024-02-23T14:15:55;11.90;99.90
17200;DHT22;8716;52.268;20.968;2024-02-23T14:18:23;11.90;99.90
17200;DHT22;8716;52.268;20.968;2024-02-23T14:20:52;11.80;99.90
17200;DHT22;8716;52.268;20.968;2024-02-23T14:23:20;11.80;99.90
17200;DHT22;8716;52.268;20.968;2024-02-23T14:25:49;11.90;99.90
17200;DHT22;8716;52.268;20.968;2024-02-23T14:28:19;11.80;99.90
17200;DHT22;8716;52.268;20.968;2024-02-23T14:30:48;11.80;99.90
17200;DHT22;8716;52.268;20.968;2024-02-23T14:33:16;11.80;99.90
17200;DHT22;8716;52.268;20.968;2024-02-23T14:35:44;11.70;99.90
17200;DHT22;8716;52.268;20.968;2024-02-23T14:38:13;11.70;99.90
17200;DHT22;8716;52.268;20.968;2024-02-23T14:40:42;11.70;99.90
17200;DHT22;8716;52.268;20.968;2024-02-23T14:43:10;11.70;99.90
17200;DHT22;8716;52.268;20.968;2024-02-23T14:45:40;11.70;99.90
17200;DHT22;8716;52.268;20.968;2024-02-23T14:48:08;11.70;99.90
17200;DHT22;8716;52.268;20.968;2024-02-23T14:50:37;11.70;99.90
17200;DHT22;8716;52.268;20.968;2024-02-23T14:53:07;11.70;99.90
17200;DHT22;8716;52.268;20.968;2024-02-23T14:55:36;11.70;99.90
17200;DHT22;8716;52.268;20.968;2024-02-23T14:58:04;11.70;99.90
17200;DHT22;8716;52.268;20.968;2024-02-23T15:00:33;11.70;99.90
17200;DHT22;8716;52.268;20.968;2024-02-23T15:03:03;11.80;99.90
17200;DHT22;8716;52.268;20.968;2024-02-23T15:05:31;11.80;99.90
17200;DHT22;8716;52.268;20.968;2024-02-23T15:08:00;11.80;99.90
17200;DHT22;8716;52.268;20.968;2024-02-23T15:10:28;11.80;99.90
17200;DHT22;8716;52.268;20.968;2024-02-23T15:12:56;11.80;99.90
17200;DHT22;8716;52.268;20.968;2024-02-23T15:15:25;11.80;99.90
17200;DHT22;8716;52.268;20.968;2024-02-23T15:17:53;11.80;99.90
17200;DHT22;8716;52.268;20.968;2024-02-23T15:20:26;11.70;99.90
17200;DHT22;8716;52.268;20.968;2024-02-23T15:22:54;11.70;99.90
17200;DHT22;8716;52.268;20.968;2024-02-23T15:25:24;11.70;99.90
17200;DHT22;8716;52.268;20.968;2024-02-23T15:27:52;11.70;99.90
17200;DHT22;8716;52.268;20.968;2024-02-23T15:30:24;11.70;99.90
17200;DHT22;8716;52.268;20.968;2024-02-23T15:32:52;11.60;99.90
17200;DHT22;8716;52.268;20.968;2024-02-23T15:35:21;11.60;99.90
17200;DHT22;8716;52.268;20.968;2024-02-23T15:37:55;11.60;99.90
17200;DHT22;8716;52.268;20.968;2024-02-23T15:40:23;11.50;99.90
17200;DHT22;8716;52.268;20.968;2024-02-23T15:42:51;11.50;99.90
17200;DHT22;8716;52.268;20.968;2024-02-23T15:45:20;11.50;99.90
17200;DHT22;8716;52.268;20.968;2024-02-23T15:47:48;11.40;99.90